Terminal Aerodrome Forecast
Issued by NWS

Home | Current Version | Previous Version | Text Only | Print | Product List | Glossary On
Versions: 1 2 3 4 5 6 7 8 9 10 11 12 13 14
761
FTUS42 KTBW 230530
TAFRSW
TAF
KRSW 230530Z 2306/2406 12003KT P6SM FEW030 SCT250
     FM231000 12004KT P6SM VCTS SCT020CB SCT100 SCT250
     FM231500 18005KT P6SM VCTS SCT030CB BKN150
     FM232100 23006KT P6SM SCT040 BKN250
     FM240100 14004KT P6SM FEW040 BKN250=

USA.gov is the U.S. government's official web portal to all federal, state and local government web resources and services.